createdAt,value
2019-04-14T00:01:47.725Z,40.25
2019-04-14T00:04:20.433Z,42.33
2019-04-14T00:06:50.470Z,37.73
2019-04-14T00:09:20.650Z,38.33
2019-04-14T00:11:50.382Z,35.20
2019-04-14T00:14:20.665Z,31.37
2019-04-14T00:16:49.457Z,41.77
2019-04-14T00:19:18.119Z,39.05
2019-04-14T00:21:47.624Z,35.23
2019-04-14T00:24:18.341Z,41.90
2019-04-14T00:26:47.146Z,41.75
2019-04-14T00:29:15.818Z,35.30
2019-04-14T00:31:45.875Z,35.70
2019-04-14T00:34:35.330Z,44.53
2019-04-14T00:37:29.504Z,39.33
2019-04-14T00:40:02.585Z,37.58
2019-04-14T00:42:40.883Z,40.70
2019-04-14T00:45:17.653Z,37.30
2019-04-14T00:48:01.093Z,38.35
2019-04-14T00:50:26.111Z,38.10
2019-04-14T00:52:56.665Z,37.50
2019-04-14T00:55:31.487Z,42.78
2019-04-14T00:58:04.259Z,37.63
2019-04-14T01:00:35.102Z,37.80
2019-04-14T01:03:04.821Z,39.48
2019-04-14T01:05:54.778Z,36.48
2019-04-14T01:08:24.832Z,32.85
2019-04-14T01:10:54.015Z,41.50
2019-04-14T01:13:22.740Z,35.55
2019-04-14T01:15:58.616Z,39.53
2019-04-14T01:18:21.795Z,34.67
2019-04-14T01:20:51.415Z,37.28
2019-04-14T01:23:21.443Z,35.70
2019-04-14T01:25:50.328Z,39.30
2019-04-14T01:28:20.113Z,41.18
2019-04-14T01:30:50.034Z,38.67
2019-04-14T01:33:18.869Z,41.30
2019-04-14T01:35:48.796Z,47.90
2019-04-14T01:38:17.646Z,33.90
2019-04-14T01:40:46.691Z,40.20
2019-04-14T01:43:16.657Z,40.15
2019-04-14T01:45:58.188Z,33.45
2019-04-14T01:48:17.058Z,30.62
2019-04-14T01:51:11.326Z,31.77
2019-04-14T01:54:01.802Z,32.80
2019-04-14T01:56:55.915Z,29.50
2019-04-14T01:59:24.645Z,35.85
2019-04-14T02:01:54.294Z,35.58
2019-04-14T02:04:22.985Z,37.48
2019-04-14T02:06:52.727Z,31.35
2019-04-14T02:09:21.509Z,34.53
2019-04-14T02:11:51.025Z,40.05
2019-04-14T02:14:21.097Z,36.85
2019-04-14T02:16:54.137Z,44.48
2019-04-14T02:19:20.309Z,37.05
2019-04-14T02:21:49.891Z,37.17
2019-04-14T02:24:19.896Z,34.38
2019-04-14T02:26:48.656Z,33.05
2019-04-14T02:29:17.317Z,37.03
2019-04-14T02:32:23.663Z,32.40
2019-04-14T02:37:19.532Z,39.08
2019-04-14T02:39:48.218Z,32.28
2019-04-14T02:44:43.592Z,35.33
2019-04-14T02:47:36.338Z,40.43
2019-04-14T02:49:50.599Z,41.35
2019-04-14T02:54:51.643Z,42.43
2019-04-14T02:57:17.338Z,39.30
2019-04-14T03:04:49.144Z,42.75
2019-04-14T03:07:21.858Z,42.10
2019-04-14T03:09:48.435Z,44.27
2019-04-14T03:12:19.250Z,47.08
2019-04-14T03:17:31.040Z,52.85
2019-04-14T03:20:14.096Z,44.35
2019-04-14T03:23:13.840Z,50.50
2019-04-14T03:25:38.784Z,46.45
2019-04-14T03:28:28.316Z,44.38
2019-04-14T03:31:51.786Z,43.68
2019-04-14T03:43:41.396Z,48.70
2019-04-14T03:51:28.083Z,46.92
2019-04-14T03:53:47.247Z,45.12
2019-04-14T03:56:29.653Z,42.55
2019-04-14T03:58:58.319Z,44.88
2019-04-14T04:01:27.984Z,48.10
2019-04-14T04:03:56.736Z,50.98
2019-04-14T04:06:25.389Z,48.70
2019-04-14T04:08:55.210Z,51.02
2019-04-14T04:11:23.919Z,50.45
2019-04-14T04:13:52.602Z,51.28
2019-04-14T04:16:29.006Z,46.18
2019-04-14T04:19:07.390Z,36.00
2019-04-14T04:21:50.936Z,53.33
2019-04-14T04:24:45.481Z,43.38
2019-04-14T04:27:33.320Z,44.42
2019-04-14T04:30:08.166Z,44.95
2019-04-14T04:32:45.050Z,47.80
2019-04-14T04:35:28.140Z,47.03
2019-04-14T04:38:09.538Z,42.25
2019-04-14T04:40:39.634Z,52.80
2019-04-14T04:43:08.397Z,47.88
2019-04-14T04:45:37.054Z,51.15
2019-04-14T04:48:06.700Z,48.35
2019-04-14T04:50:36.731Z,48.87
2019-04-14T04:53:06.848Z,50.48
2019-04-14T04:55:35.658Z,54.30
2019-04-14T04:58:05.555Z,51.50
2019-04-14T05:00:35.295Z,53.70
2019-04-14T05:03:04.081Z,54.25
2019-04-14T05:06:09.316Z,58.45
2019-04-14T05:08:39.712Z,53.13
2019-04-14T05:11:31.636Z,50.33
2019-04-14T05:14:02.850Z,54.08
2019-04-14T05:16:32.448Z,56.83
2019-04-14T05:19:15.907Z,46.25
2019-04-14T05:21:32.150Z,44.40
2019-04-14T05:24:00.934Z,49.80
2019-04-14T05:26:30.815Z,49.58
2019-04-14T05:28:59.683Z,42.80
2019-04-14T05:31:29.406Z,42.67
2019-04-14T05:33:59.943Z,41.88
2019-04-14T05:36:28.689Z,44.10
2019-04-14T05:38:58.123Z,47.45
2019-04-14T05:41:26.806Z,42.00
2019-04-14T05:43:58.234Z,37.38
2019-04-14T05:46:25.880Z,39.65
2019-04-14T05:48:55.664Z,38.60
2019-04-14T05:51:24.843Z,43.68
2019-04-14T05:53:54.508Z,37.85
2019-04-14T05:56:23.253Z,37.90
2019-04-14T05:58:51.887Z,38.65
2019-04-14T06:01:20.568Z,38.75
2019-04-14T06:03:49.677Z,33.13
2019-04-14T06:06:18.404Z,34.45
2019-04-14T06:08:47.063Z,38.60
2019-04-14T06:11:15.725Z,38.67
2019-04-14T06:13:44.410Z,38.70
2019-04-14T06:16:13.118Z,35.13
2019-04-14T06:18:41.778Z,30.32
2019-04-14T06:21:10.436Z,29.18
2019-04-14T06:23:41.288Z,31.17
2019-04-14T06:26:09.952Z,31.35
2019-04-14T06:28:38.610Z,29.32
2019-04-14T06:31:38.299Z,29.48
2019-04-14T06:34:17.358Z,24.92
2019-04-14T06:37:03.962Z,25.82
2019-04-14T06:39:35.101Z,34.08
2019-04-14T06:42:04.083Z,32.85
2019-04-14T06:44:32.761Z,29.87
2019-04-14T06:47:01.428Z,28.17
2019-04-14T06:49:30.081Z,28.20
2019-04-14T06:51:58.834Z,27.62
2019-04-14T06:54:27.512Z,25.00
2019-04-14T06:56:56.201Z,28.15
2019-04-14T06:59:24.867Z,26.65
2019-04-14T07:01:53.527Z,27.05
2019-04-14T07:04:22.213Z,25.55
2019-04-14T07:06:51.479Z,21.23
2019-04-14T07:09:20.306Z,25.40
2019-04-14T07:11:49.005Z,26.23
2019-04-14T07:14:17.661Z,28.23
2019-04-14T07:16:46.371Z,25.00
2019-04-14T07:19:15.042Z,19.77
2019-04-14T07:21:43.680Z,22.17
2019-04-14T07:24:12.369Z,19.90
2019-04-14T07:26:41.187Z,23.18
2019-04-14T07:29:09.856Z,20.62
2019-04-14T07:32:06.598Z,18.73
2019-04-14T07:34:54.788Z,22.52
2019-04-14T07:37:45.536Z,20.25
2019-04-14T07:40:24.158Z,19.82
2019-04-14T07:42:59.025Z,19.65
2019-04-14T07:45:45.806Z,19.10
2019-04-14T07:48:34.695Z,21.52
2019-04-14T07:51:23.625Z,17.17
2019-04-14T07:54:11.358Z,21.30
2019-04-14T07:56:49.876Z,25.17
2019-04-14T07:59:31.702Z,23.67
2019-04-14T08:02:06.090Z,21.20
2019-04-14T08:04:37.778Z,24.07
2019-04-14T08:07:06.510Z,22.82
2019-04-14T08:09:35.164Z,21.82
2019-04-14T08:12:03.859Z,20.05
2019-04-14T08:14:32.542Z,26.90
2019-04-14T08:17:01.246Z,24.98
2019-04-14T08:19:29.897Z,24.23
2019-04-14T08:21:58.552Z,22.75
2019-04-14T08:24:27.242Z,24.50
2019-04-14T08:26:55.978Z,24.43
2019-04-14T08:29:24.634Z,20.88
2019-04-14T08:31:53.338Z,22.73
2019-04-14T08:34:21.984Z,19.17
2019-04-14T08:36:50.711Z,23.20
2019-04-14T08:39:19.392Z,23.18
2019-04-14T08:42:05.370Z,26.55
2019-04-14T08:44:53.232Z,19.70
2019-04-14T08:47:53.276Z,25.23
2019-04-14T08:50:38.924Z,23.40
2019-04-14T08:53:02.682Z,19.50
2019-04-14T08:55:40.081Z,22.95
2019-04-14T08:58:30.826Z,24.40
2019-04-14T09:01:04.811Z,21.52
2019-04-14T09:04:07.579Z,19.12
2019-04-14T09:06:53.169Z,20.50
2019-04-14T09:09:25.835Z,24.27
2019-04-14T09:11:58.228Z,20.10
2019-04-14T09:14:26.950Z,22.87
2019-04-14T09:16:55.627Z,20.23
2019-04-14T09:19:24.583Z,20.82
2019-04-14T09:21:53.276Z,20.32
2019-04-14T09:24:21.952Z,19.42
2019-04-14T09:26:50.611Z,21.68
2019-04-14T09:29:19.297Z,21.05
2019-04-14T09:31:48.002Z,20.90
2019-04-14T09:34:16.671Z,18.60
2019-04-14T09:36:45.327Z,24.90
2019-04-14T09:39:14.024Z,20.92
2019-04-14T09:41:42.696Z,18.80
2019-04-14T09:44:11.360Z,20.25
2019-04-14T09:46:40.054Z,20.05
2019-04-14T09:49:08.716Z,20.57
2019-04-14T09:51:37.381Z,22.60
2019-04-14T09:54:06.155Z,25.35
2019-04-14T09:56:34.842Z,20.82
2019-04-14T09:59:03.847Z,20.30
2019-04-14T10:01:32.624Z,21.12
2019-04-14T10:04:01.284Z,24.55
2019-04-14T10:06:30.030Z,23.32
2019-04-14T10:08:58.724Z,23.62
2019-04-14T10:11:27.484Z,22.22
2019-04-14T10:13:56.152Z,22.30
2019-04-14T10:16:24.839Z,20.32
2019-04-14T10:18:53.560Z,21.77
2019-04-14T10:21:22.228Z,22.95
2019-04-14T10:23:50.897Z,21.17
2019-04-14T10:26:19.597Z,22.32
2019-04-14T10:28:50.749Z,21.90
2019-04-14T10:31:19.046Z,26.90
2019-04-14T10:33:47.741Z,22.02
2019-04-14T10:36:16.415Z,22.62
2019-04-14T10:38:45.110Z,22.80
2019-04-14T10:41:13.774Z,24.35
2019-04-14T10:43:42.445Z,24.07
2019-04-14T10:46:11.139Z,23.32
2019-04-14T10:48:39.818Z,24.87
2019-04-14T10:51:08.512Z,21.95
2019-04-14T10:53:37.178Z,23.73
2019-04-14T10:56:05.933Z,23.83
2019-04-14T10:58:34.608Z,21.37
2019-04-14T11:01:03.271Z,22.90
2019-04-14T11:03:31.982Z,20.82
2019-04-14T11:06:06.050Z,21.70
2019-04-14T11:08:34.752Z,24.00
2019-04-14T11:11:03.535Z,20.72
2019-04-14T11:13:32.198Z,25.62
2019-04-14T11:16:00.956Z,23.22
2019-04-14T11:18:29.619Z,25.50
2019-04-14T11:20:58.281Z,21.35
2019-04-14T11:23:26.970Z,24.32
2019-04-14T11:25:55.638Z,24.87
2019-04-14T11:28:24.297Z,21.68
2019-04-14T11:30:52.985Z,18.45
2019-04-14T11:33:46.975Z,21.77
2019-04-14T11:36:33.552Z,20.72
2019-04-14T11:39:08.159Z,23.15
2019-04-14T11:41:36.865Z,23.15
2019-04-14T11:44:05.760Z,24.20
2019-04-14T11:46:34.375Z,20.95
2019-04-14T11:49:03.149Z,19.82
2019-04-14T11:51:31.815Z,21.73
2019-04-14T11:54:00.686Z,20.95
2019-04-14T11:56:29.411Z,24.50
2019-04-14T11:58:58.075Z,25.85
2019-04-14T12:01:44.590Z,24.52
2019-04-14T12:04:24.406Z,22.58
2019-04-14T12:06:59.707Z,22.20
2019-04-14T12:09:31.240Z,22.15
2019-04-14T12:11:59.933Z,21.40
2019-04-14T12:14:28.937Z,22.22
2019-04-14T12:16:57.633Z,22.95
2019-04-14T12:19:26.329Z,23.47
2019-04-14T12:22:07.445Z,23.95
2019-04-14T12:24:25.409Z,23.00
2019-04-14T12:26:54.073Z,28.40
2019-04-14T12:29:23.645Z,23.80
2019-04-14T12:31:53.078Z,22.15
2019-04-14T12:34:21.854Z,21.70
2019-04-14T12:36:50.504Z,22.45
2019-04-14T12:39:23.265Z,21.87
2019-04-14T12:42:11.494Z,21.15
2019-04-14T12:44:52.875Z,23.05
2019-04-14T12:47:41.441Z,22.37
2019-04-14T12:50:18.078Z,24.20
2019-04-14T12:52:46.761Z,21.07
2019-04-14T12:55:15.514Z,22.10
2019-04-14T12:57:53.164Z,20.12
2019-04-14T13:00:50.071Z,22.58
2019-04-14T13:03:19.035Z,23.47
2019-04-14T13:05:47.693Z,23.27
2019-04-14T13:08:16.380Z,21.52
2019-04-14T13:10:45.482Z,21.97
2019-04-14T13:13:14.150Z,21.00
2019-04-14T13:15:42.832Z,22.00
2019-04-14T13:18:11.517Z,22.00
2019-04-14T13:20:40.197Z,27.05
2019-04-14T13:23:08.858Z,24.07
2019-04-14T13:25:37.556Z,28.27
2019-04-14T13:28:06.304Z,23.27
2019-04-14T13:30:37.427Z,26.45
2019-04-14T13:33:06.202Z,23.75
2019-04-14T13:35:34.867Z,30.10
2019-04-14T13:38:03.598Z,23.73
2019-04-14T13:40:32.290Z,22.77
2019-04-14T13:43:01.273Z,24.60
2019-04-14T13:45:29.938Z,27.42
2019-04-14T13:47:58.607Z,26.35
2019-04-14T13:50:27.355Z,22.77
2019-04-14T13:52:56.021Z,22.25
2019-04-14T13:55:24.701Z,19.67
2019-04-14T13:57:53.402Z,23.00
2019-04-14T14:00:23.029Z,20.05
2019-04-14T14:02:51.701Z,22.45
2019-04-14T14:05:20.394Z,21.87
2019-04-14T14:07:49.065Z,24.30
2019-04-14T14:10:18.202Z,22.40
2019-04-14T14:13:06.013Z,21.68
2019-04-14T14:16:12.255Z,18.30
2019-04-14T14:18:52.474Z,21.30
2019-04-14T14:21:45.841Z,19.27
2019-04-14T14:24:51.699Z,23.12
2019-04-14T14:27:20.384Z,20.88
2019-04-14T14:29:49.047Z,21.65
2019-04-14T14:32:24.174Z,26.50
2019-04-14T14:34:52.834Z,21.87
2019-04-14T14:37:21.524Z,18.92
2019-04-14T14:39:50.211Z,17.57
2019-04-14T14:42:18.872Z,18.92
2019-04-14T14:44:52.934Z,23.22
2019-04-14T14:47:24.473Z,19.23
2019-04-14T14:50:11.202Z,20.20
2019-04-14T14:52:40.892Z,20.43
2019-04-14T14:55:09.630Z,21.15
2019-04-14T14:57:38.390Z,25.35
2019-04-14T15:00:13.445Z,23.90
2019-04-14T15:02:42.136Z,22.87
2019-04-14T15:05:10.873Z,19.30
2019-04-14T15:07:39.536Z,20.00
2019-04-14T15:10:08.381Z,20.40
2019-04-14T15:12:37.043Z,16.82
2019-04-14T15:15:06.314Z,21.65
2019-04-14T15:17:35.009Z,19.55
2019-04-14T15:20:03.983Z,18.82
2019-04-14T15:22:32.670Z,18.27
2019-04-14T15:25:01.356Z,20.12
2019-04-14T15:27:30.093Z,18.10
2019-04-14T15:29:58.761Z,16.65
2019-04-14T15:32:27.529Z,16.25
2019-04-14T15:34:57.043Z,14.95
2019-04-14T15:37:25.736Z,15.18
2019-04-14T15:39:54.432Z,15.08
2019-04-14T15:42:23.094Z,15.10
2019-04-14T15:44:51.747Z,15.05
2019-04-14T15:47:20.523Z,14.45
2019-04-14T15:49:49.174Z,12.88
2019-04-14T15:52:17.908Z,13.32
2019-04-14T15:54:46.597Z,13.22
2019-04-14T15:57:33.221Z,12.20
2019-04-14T16:00:12.677Z,11.03
2019-04-14T16:02:46.967Z,10.25
2019-04-14T16:05:22.637Z,11.90
2019-04-14T16:07:58.153Z,10.32
2019-04-14T16:10:45.880Z,10.78
2019-04-14T16:13:36.667Z,9.05
2019-04-14T16:16:30.649Z,9.65
2019-04-14T16:19:04.271Z,9.80
2019-04-14T16:21:32.989Z,10.35
2019-04-14T16:24:01.654Z,12.25
2019-04-14T16:26:39.649Z,11.12
2019-04-14T16:29:31.803Z,11.35
2019-04-14T16:32:20.068Z,9.05
2019-04-14T16:34:54.966Z,9.68
2019-04-14T16:37:23.640Z,9.88
2019-04-14T16:39:52.320Z,10.60
2019-04-14T16:42:21.008Z,10.10
2019-04-14T16:44:49.675Z,11.85
2019-04-14T16:47:18.403Z,11.68
2019-04-14T16:49:47.164Z,11.50
2019-04-14T16:52:33.559Z,10.68
2019-04-14T16:55:14.777Z,10.98
2019-04-14T16:57:56.077Z,11.73
2019-04-14T17:00:29.555Z,13.48
2019-04-14T17:02:58.223Z,12.18
2019-04-14T17:05:26.909Z,16.97
2019-04-14T17:07:55.561Z,15.38
2019-04-14T17:10:24.240Z,13.38
2019-04-14T17:12:52.913Z,13.83
2019-04-14T17:15:36.091Z,13.93
2019-04-14T17:18:17.193Z,14.28
2019-04-14T17:20:54.182Z,18.37
2019-04-14T17:23:34.269Z,15.35
2019-04-14T17:26:07.805Z,20.30
2019-04-14T17:28:54.553Z,16.93
2019-04-14T17:31:45.274Z,19.77
2019-04-14T17:34:17.959Z,16.52
2019-04-14T17:37:11.453Z,17.48
2019-04-14T17:39:45.311Z,18.42
2019-04-14T17:42:26.976Z,16.93
2019-04-14T17:45:27.140Z,21.52
2019-04-14T17:48:00.317Z,19.85
2019-04-14T17:53:34.958Z,19.20
2019-04-14T17:56:09.921Z,22.55
2019-04-14T17:58:48.112Z,21.85
2019-04-14T18:01:29.511Z,22.32
2019-04-14T18:04:01.362Z,22.00
2019-04-14T18:06:37.547Z,25.95
2019-04-14T18:09:20.539Z,24.40
2019-04-14T18:12:04.718Z,23.38
2019-04-14T18:14:44.234Z,24.70
2019-04-14T18:17:22.672Z,27.15
2019-04-14T18:19:55.467Z,29.63
2019-04-14T18:22:24.148Z,30.08
2019-04-14T18:24:52.807Z,24.10
2019-04-14T18:27:21.493Z,26.40
2019-04-14T18:30:06.512Z,26.60
2019-04-14T18:32:40.167Z,24.92
2019-04-14T18:35:16.350Z,24.02
2019-04-14T18:38:16.327Z,27.82
2019-04-14T18:40:55.203Z,24.92
2019-04-14T18:43:35.054Z,26.55
2019-04-14T18:46:28.800Z,27.80
2019-04-14T18:51:41.349Z,32.13
2019-04-14T18:54:23.432Z,27.32
2019-04-14T18:57:11.165Z,27.82
2019-04-14T18:59:45.689Z,33.00
2019-04-14T19:02:16.137Z,30.32
2019-04-14T19:04:44.828Z,31.15
2019-04-14T19:07:13.487Z,30.05
2019-04-14T19:09:42.147Z,32.10
2019-04-14T19:12:28.861Z,36.80
2019-04-14T19:15:05.508Z,31.35
2019-04-14T19:17:46.570Z,34.33
2019-04-14T19:20:16.357Z,34.08
2019-04-14T19:22:45.040Z,33.08
2019-04-14T19:25:13.826Z,37.05
2019-04-14T19:27:42.490Z,36.40
2019-04-14T19:30:11.532Z,32.30
2019-04-14T19:32:40.231Z,34.70
2019-04-14T19:35:08.965Z,39.92
2019-04-14T19:37:37.644Z,32.40
2019-04-14T19:40:06.619Z,34.10
2019-04-14T19:42:35.286Z,34.90
2019-04-14T19:45:04.081Z,32.88
2019-04-14T19:47:32.769Z,33.08
2019-04-14T19:50:01.432Z,31.10
2019-04-14T19:52:30.088Z,32.13
2019-04-14T19:54:58.778Z,28.45
2019-04-14T19:57:27.436Z,34.43
2019-04-14T19:59:56.128Z,37.55
2019-04-14T20:02:24.805Z,36.10
2019-04-14T20:04:53.460Z,37.15
2019-04-14T20:07:22.150Z,32.53
2019-04-14T20:09:50.815Z,31.77
2019-04-14T20:12:19.549Z,38.28
2019-04-14T20:14:48.226Z,35.35
2019-04-14T20:17:42.006Z,33.25
2019-04-14T20:23:08.282Z,34.50
2019-04-14T20:26:03.620Z,35.23
2019-04-14T20:28:46.162Z,38.90
2019-04-14T20:31:46.210Z,35.63
2019-04-14T20:34:14.954Z,38.67
2019-04-14T20:36:43.643Z,39.92
2019-04-14T20:39:15.617Z,39.92
2019-04-14T20:41:44.349Z,37.20
2019-04-14T20:44:13.172Z,34.98
2019-04-14T20:46:41.901Z,39.73
2019-04-14T20:49:10.641Z,36.75
2019-04-14T20:51:39.319Z,39.92
2019-04-14T20:54:08.048Z,36.65
2019-04-14T20:56:36.807Z,40.73
2019-04-14T20:59:05.467Z,37.28
2019-04-14T21:01:35.914Z,42.35
2019-04-14T21:04:17.378Z,42.40
2019-04-14T21:07:11.097Z,41.65
2019-04-14T21:12:21.698Z,42.13
2019-04-14T21:14:54.870Z,40.55
2019-04-14T21:20:24.487Z,43.13
2019-04-14T21:23:07.541Z,41.33
2019-04-14T21:26:00.768Z,42.90
2019-04-14T21:28:29.907Z,46.53
2019-04-14T21:31:07.956Z,44.50
2019-04-14T21:33:44.694Z,44.55
2019-04-14T21:36:21.245Z,42.40
2019-04-14T21:39:11.347Z,43.17
2019-04-14T21:41:40.110Z,47.45
2019-04-14T21:44:08.766Z,48.20
2019-04-14T21:46:37.458Z,47.93
2019-04-14T21:49:06.195Z,43.00
2019-04-14T21:51:57.012Z,44.08
2019-04-14T21:54:25.619Z,43.78
2019-04-14T21:57:12.021Z,44.73
2019-04-14T21:59:56.877Z,42.85
2019-04-14T22:02:43.211Z,41.98
2019-04-14T22:05:21.372Z,43.78
2019-04-14T22:07:59.910Z,39.73
2019-04-14T22:10:38.700Z,50.30
2019-04-14T22:13:07.471Z,42.83
2019-04-14T22:15:36.152Z,48.35
2019-04-14T22:18:04.886Z,47.67
2019-04-14T22:20:33.648Z,46.70
2019-04-14T22:23:03.969Z,49.10
2019-04-14T22:25:32.687Z,46.90
2019-04-14T22:28:01.495Z,55.05
2019-04-14T22:30:30.231Z,56.30
2019-04-14T22:32:58.916Z,55.23
2019-04-14T22:35:27.572Z,58.10
2019-04-14T22:37:56.247Z,60.75
2019-04-14T22:40:24.989Z,66.92
2019-04-14T22:42:53.673Z,67.75
2019-04-14T22:45:22.430Z,69.80
2019-04-14T22:47:51.085Z,62.35
2019-04-14T22:50:19.740Z,54.98
2019-04-14T22:52:48.416Z,62.90
2019-04-14T22:55:17.086Z,55.45
2019-04-14T22:57:45.773Z,64.53
2019-04-14T23:00:31.985Z,61.83
2019-04-14T23:03:07.763Z,65.20
2019-04-14T23:06:01.306Z,60.33
2019-04-14T23:08:35.490Z,63.00
2019-04-14T23:11:13.314Z,62.67
2019-04-14T23:13:50.790Z,56.05
2019-04-14T23:16:47.595Z,70.30
2019-04-14T23:19:22.490Z,69.15
2019-04-14T23:22:02.778Z,55.85
2019-04-14T23:24:35.020Z,66.55
2019-04-14T23:27:03.709Z,70.00
2019-04-14T23:29:32.395Z,62.95
2019-04-14T23:32:01.126Z,68.35
2019-04-14T23:34:29.804Z,73.10
2019-04-14T23:36:58.565Z,67.75
2019-04-14T23:39:27.310Z,66.15
2019-04-14T23:41:55.964Z,67.78
2019-04-14T23:44:24.645Z,65.50
2019-04-14T23:46:53.305Z,66.30
2019-04-14T23:49:22.043Z,69.97
2019-04-14T23:51:50.733Z,74.10
2019-04-14T23:54:19.396Z,70.15
2019-04-14T23:56:48.054Z,64.62
2019-04-14T23:59:17.225Z,71.77
